Time;durP1;ratioP1;P1;durP2;ratioP2;P2;SDS_P1;SDS_P2;PMS_P1;PMS_P2;Temp;Humidity;BMP_temperature;BMP_pressure;BME280_temperature;BME280_humidity;BME280_pressure;Samples;Min_cycle;Max_cycle;Signal;HPM_P1;HPM_P2
2021/12/04 00:01:11;;;;;;;7.88;4.22;;;;;;;;;;5042207;28;20032;-55
2021/12/04 00:03:40;;;;;;;9.13;4.93;;;;;;;;;;5046165;28;20033;-56
2021/12/04 00:06:14;;;;;;;6.93;4.20;;;;;;;;;;5054272;28;21615;-54
2021/12/04 00:08:44;;;;;;;6.60;4.13;;;;;;;;;;5046014;28;20063;-52
2021/12/04 00:11:10;;;;;;;7.97;3.85;;;;;;;;;;5055525;28;20204;-56
2021/12/04 00:13:36;;;;;;;10.73;4.13;;;;;;;;;;5051308;28;20029;-56
2021/12/04 00:16:02;;;;;;;7.85;4.20;;;;;;;;;;5055601;28;20033;-56
2021/12/04 00:18:28;;;;;;;7.05;3.97;;;;;;;;;;5050700;28;20078;-56
2021/12/04 00:20:54;;;;;;;10.60;4.10;;;;;;;;;;5054303;28;20029;-56
2021/12/04 00:23:20;;;;;;;9.30;4.28;;;;;;;;;;5052690;28;20456;-56
2021/12/04 00:25:46;;;;;;;7.70;3.95;;;;;;;;;;5049273;28;20025;-55
2021/12/04 00:28:12;;;;;;;8.82;4.18;;;;;;;;;;5053715;28;20032;-53
2021/12/04 00:30:38;;;;;;;9.75;4.00;;;;;;;;;;5045664;28;20566;-52
2021/12/04 00:33:28;;;;;;;7.28;3.97;;;;;;;;;;5044652;28;20029;-52
2021/12/04 00:35:58;;;;;;;7.65;4.30;;;;;;;;;;5044168;28;20067;-54
2021/12/04 00:49:22;;;;;;;8.02;4.60;;;;;;;;;;5047186;28;20090;-56
2021/12/04 00:51:50;;;;;;;6.63;3.65;;;;;;;;;;5042875;28;20389;-56
2021/12/04 00:54:17;;;;;;;7.30;3.75;;;;;;;;;;5048597;28;20025;-56
2021/12/04 00:56:43;;;;;;;8.68;3.78;;;;;;;;;;5052521;28;20021;-53
2021/12/04 00:59:09;;;;;;;8.25;4.88;;;;;;;;;;5052453;28;20052;-54
2021/12/04 01:01:38;;;;;;;6.30;3.67;;;;;;;;;;5051380;28;20105;-55
2021/12/04 01:04:04;;;;;;;10.02;4.00;;;;;;;;;;5045466;28;20155;-55
2021/12/04 01:06:30;;;;;;;8.30;4.15;;;;;;;;;;5049717;28;20349;-54
2021/12/04 01:08:56;;;;;;;8.02;4.55;;;;;;;;;;5049545;28;20091;-54
2021/12/04 01:11:22;;;;;;;8.18;4.30;;;;;;;;;;5045718;28;20484;-53
2021/12/04 01:13:48;;;;;;;6.78;4.10;;;;;;;;;;5051539;28;20175;-56
2021/12/04 01:16:14;;;;;;;7.30;4.13;;;;;;;;;;5048359;28;20506;-56
2021/12/04 01:18:41;;;;;;;7.90;4.03;;;;;;;;;;5045579;28;20156;-55
2021/12/04 01:21:06;;;;;;;11.77;4.68;;;;;;;;;;5050638;28;20075;-56
2021/12/04 01:23:33;;;;;;;8.65;4.30;;;;;;;;;;5052787;28;20412;-56
2021/12/04 01:25:59;;;;;;;8.25;4.40;;;;;;;;;;5051872;28;20104;-55
2021/12/04 01:28:25;;;;;;;8.80;4.60;;;;;;;;;;5046897;28;20037;-57
2021/12/04 01:30:51;;;;;;;7.82;4.30;;;;;;;;;;5052971;28;20462;-56
2021/12/04 01:33:17;;;;;;;7.28;4.18;;;;;;;;;;5046490;28;20021;-56
2021/12/04 01:35:42;;;;;;;9.32;4.70;;;;;;;;;;5047638;28;20033;-56
2021/12/04 01:38:10;;;;;;;6.53;4.00;;;;;;;;;;5047540;28;20025;-56
2021/12/04 01:40:36;;;;;;;8.75;4.53;;;;;;;;;;5048803;28;20501;-53
2021/12/04 01:43:02;;;;;;;8.07;4.60;;;;;;;;;;5051251;28;20037;-56
2021/12/04 01:45:28;;;;;;;8.38;3.63;;;;;;;;;;5053564;28;20036;-56
2021/12/04 01:48:01;;;;;;;11.23;4.65;;;;;;;;;;5058268;28;20029;-56
2021/12/04 01:50:27;;;;;;;6.63;4.25;;;;;;;;;;5054813;28;20040;-55
2021/12/04 01:52:56;;;;;;;11.50;3.63;;;;;;;;;;5055304;28;20469;-56
2021/12/04 01:55:26;;;;;;;8.63;4.47;;;;;;;;;;5049374;28;20036;-57
2021/12/04 01:57:52;;;;;;;9.15;5.28;;;;;;;;;;5051917;28;20062;-55
2021/12/04 02:00:18;;;;;;;9.77;4.15;;;;;;;;;;5051124;28;20108;-56
2021/12/04 02:02:44;;;;;;;7.78;4.00;;;;;;;;;;5055388;28;20494;-56
2021/12/04 02:05:10;;;;;;;7.30;4.00;;;;;;;;;;5055884;28;20057;-56
2021/12/04 02:07:36;;;;;;;8.23;4.50;;;;;;;;;;5051815;28;20032;-56
2021/12/04 02:10:06;;;;;;;8.52;4.68;;;;;;;;;;5052375;28;20067;-53
2021/12/04 02:12:32;;;;;;;6.80;4.07;;;;;;;;;;5052254;28;20028;-55
2021/12/04 02:14:58;;;;;;;9.98;3.97;;;;;;;;;;5058552;28;20461;-56
2021/12/04 02:17:24;;;;;;;8.43;4.45;;;;;;;;;;5053224;28;20175;-56
2021/12/04 02:19:50;;;;;;;6.28;3.97;;;;;;;;;;5049199;28;20092;-56
2021/12/04 02:22:17;;;;;;;10.27;4.32;;;;;;;;;;5053525;28;20029;-56
2021/12/04 02:24:43;;;;;;;7.80;4.20;;;;;;;;;;5049223;28;20033;-54
2021/12/04 02:27:12;;;;;;;7.05;4.43;;;;;;;;;;5049958;28;20119;-55
2021/12/04 02:29:46;;;;;;;10.35;4.88;;;;;;;;;;5051481;28;20032;-56
2021/12/04 02:32:11;;;;;;;;;;;;;;;;;;5048573;28;20473;-56
2021/12/04 02:34:38;;;;;;;8.50;4.45;;;;;;;;;;5052162;28;20001;-56
2021/12/04 02:37:04;;;;;;;8.65;4.43;;;;;;;;;;5047386;28;20381;-55
2021/12/04 02:39:32;;;;;;;7.32;4.35;;;;;;;;;;5047909;28;20104;-56
2021/12/04 02:41:58;;;;;;;8.35;4.45;;;;;;;;;;5048144;28;20082;-55
2021/12/04 02:44:31;;;;;;;6.57;4.15;;;;;;;;;;5055542;28;20482;-56
2021/12/04 02:46:57;;;;;;;;;;;;;;;;;;5042331;28;20156;-56
2021/12/04 02:49:23;;;;;;;7.70;4.65;;;;;;;;;;5050840;28;20411;-54
2021/12/04 02:51:49;;;;;;;7.65;4.55;;;;;;;;;;5051400;28;20086;-56
2021/12/04 02:54:15;;;;;;;9.73;4.55;;;;;;;;;;5050861;28;20032;-52
2021/12/04 02:56:45;;;;;;;9.32;4.05;;;;;;;;;;5050510;28;20427;-55
2021/12/04 02:59:11;;;;;;;6.75;4.43;;;;;;;;;;5051322;28;20052;-56
2021/12/04 03:01:39;;;;;;;7.65;4.40;;;;;;;;;;5047833;28;20041;-53
2021/12/04 03:04:09;;;;;;;7.15;4.70;;;;;;;;;;5052638;28;20031;-56
2021/12/04 03:06:45;;;;;;;8.00;4.20;;;;;;;;;;5045405;28;20082;-56
2021/12/04 03:09:12;;;;;;;6.07;4.03;;;;;;;;;;5046768;28;20370;-54
2021/12/04 03:11:38;;;;;;;10.60;4.50;;;;;;;;;;5048730;28;20033;-56
2021/12/04 03:14:04;;;;;;;8.73;4.35;;;;;;;;;;5053532;28;20025;-56
2021/12/04 03:16:31;;;;;;;8.27;4.78;;;;;;;;;;5044314;28;20056;-56
2021/12/04 03:18:57;;;;;;;10.20;4.47;;;;;;;;;;5050496;28;20043;-54
2021/12/04 03:21:23;;;;;;;8.70;4.93;;;;;;;;;;5054238;28;20020;-56
2021/12/04 03:23:57;;;;;;;7.57;4.25;;;;;;;;;;5046480;28;20025;-55
2021/12/04 03:26:23;;;;;;;7.43;4.30;;;;;;;;;;5049685;28;20030;-56
2021/12/04 03:28:50;;;;;;;9.10;3.78;;;;;;;;;;5055230;28;20047;-55
2021/12/04 03:31:39;;;;;;;7.38;4.68;;;;;;;;;;5046612;28;20116;-55
2021/12/04 03:40:05;;;;;;;7.85;4.00;;;;;;;;;;5050231;28;20099;-55
2021/12/04 03:40:07;;;;;;;5.50;3.72;;;;;;;;;;5037473;28;20500;-56
2021/12/04 03:42:34;;;;;;;6.63;4.18;;;;;;;;;;5047962;28;20460;-56
2021/12/04 03:45:00;;;;;;;8.55;4.07;;;;;;;;;;5046869;28;20037;-56
2021/12/04 03:47:27;;;;;;;10.27;5.00;;;;;;;;;;5038113;28;20112;-54
2021/12/04 03:49:53;;;;;;;5.97;4.13;;;;;;;;;;5046756;28;20349;-56
2021/12/04 03:52:19;;;;;;;8.20;4.43;;;;;;;;;;5048384;28;20029;-56
2021/12/04 03:54:45;;;;;;;9.55;4.95;;;;;;;;;;5046677;28;20041;-55
2021/12/04 03:57:12;;;;;;;6.78;4.25;;;;;;;;;;5055656;28;20108;-53
2021/12/04 03:59:44;;;;;;;7.25;4.18;;;;;;;;;;5052365;28;20033;-54
2021/12/04 04:02:11;;;;;;;8.77;4.40;;;;;;;;;;5038093;28;20017;-54
2021/12/04 04:04:37;;;;;;;6.85;4.60;;;;;;;;;;5052599;28;20112;-53
2021/12/04 04:07:04;;;;;;;5.60;3.58;;;;;;;;;;5051529;28;20385;-56
2021/12/04 04:09:30;;;;;;;6.45;4.20;;;;;;;;;;5044648;28;20024;-53
2021/12/04 04:11:57;;;;;;;6.88;4.18;;;;;;;;;;5045506;28;20079;-56
2021/12/04 04:14:24;;;;;;;9.43;4.70;;;;;;;;;;5045573;28;20035;-56
2021/12/04 04:16:51;;;;;;;11.25;4.65;;;;;;;;;;5049023;28;20056;-56
2021/12/04 04:19:17;;;;;;;6.45;3.92;;;;;;;;;;5048337;28;20079;-56
2021/12/04 04:21:43;;;;;;;7.13;4.82;;;;;;;;;;5055054;28;20043;-56
2021/12/04 04:24:17;;;;;;;9.50;4.53;;;;;;;;;;5052557;28;20021;-56
2021/12/04 04:26:44;;;;;;;7.47;4.05;;;;;;;;;;5048873;28;20035;-56
2021/12/04 04:29:10;;;;;;;7.95;4.80;;;;;;;;;;5051050;28;20029;-55
2021/12/04 04:31:37;;;;;;;6.97;4.55;;;;;;;;;;5047939;28;20031;-52
2021/12/04 04:34:06;;;;;;;7.88;4.85;;;;;;;;;;5057372;28;20029;-55
2021/12/04 04:58:18;;;;;;;9.25;5.38;;;;;;;;;;5045138;28;20082;-55
2021/12/04 05:00:57;;;;;;;9.50;4.97;;;;;;;;;;5046812;28;20025;-50
2021/12/04 05:12:02;;;;;;;9.75;5.00;;;;;;;;;;5061801;28;20037;-55
2021/12/04 05:14:28;;;;;;;8.48;4.97;;;;;;;;;;5062531;28;20029;-54
2021/12/04 05:17:10;;;;;;;9.80;5.23;;;;;;;;;;5060562;28;20108;-56
2021/12/04 05:19:45;;;;;;;8.60;5.10;;;;;;;;;;5044881;28;20025;-56
2021/12/04 05:22:12;;;;;;;13.75;5.57;;;;;;;;;;5059281;28;20457;-56
2021/12/04 05:24:39;;;;;;;13.55;5.35;;;;;;;;;;5044208;28;20105;-53
2021/12/04 05:27:05;;;;;;;10.45;6.05;;;;;;;;;;5058967;28;20120;-56
2021/12/04 05:29:32;;;;;;;8.25;4.95;;;;;;;;;;5057328;28;20025;-56
2021/12/04 05:31:57;;;;;;;9.75;5.65;;;;;;;;;;5051394;28;20057;-54
2021/12/04 05:34:23;;;;;;;8.90;5.47;;;;;;;;;;5049056;28;20373;-56
2021/12/04 05:36:50;;;;;;;10.88;6.63;;;;;;;;;;5048886;28;20087;-53
2021/12/04 05:39:16;;;;;;;9.65;5.45;;;;;;;;;;5054186;28;20025;-55
2021/12/04 05:41:42;;;;;;;10.68;6.53;;;;;;;;;;5046500;28;20028;-56
2021/12/04 05:44:09;;;;;;;13.38;6.95;;;;;;;;;;5050649;28;20059;-56
2021/12/04 05:46:43;;;;;;;11.05;6.70;;;;;;;;;;5053812;28;20032;-54
2021/12/04 05:52:16;;;;;;;10.65;6.13;;;;;;;;;;5031430;28;20037;-55
2021/12/04 05:57:08;;;;;;;13.20;7.13;;;;;;;;;;5045668;28;20045;-55
2021/12/04 05:59:35;;;;;;;12.55;6.93;;;;;;;;;;5045588;28;20074;-56
2021/12/04 06:02:01;;;;;;;12.48;7.53;;;;;;;;;;5049470;28;20109;-55
2021/12/04 06:04:27;;;;;;;12.32;7.50;;;;;;;;;;5054449;28;20111;-56
2021/12/04 06:06:53;;;;;;;14.98;8.02;;;;;;;;;;5056661;28;20513;-56
2021/12/04 06:09:20;;;;;;;15.30;8.05;;;;;;;;;;5056125;28;20021;-56
2021/12/04 06:11:46;;;;;;;14.43;7.85;;;;;;;;;;5048148;28;20064;-55
2021/12/04 06:14:12;;;;;;;15.88;7.97;;;;;;;;;;5050788;28;20030;-54
2021/12/04 06:16:38;;;;;;;18.30;8.95;;;;;;;;;;5042481;28;20045;-56
2021/12/04 06:24:33;;;;;;;17.15;9.07;;;;;;;;;;5054892;28;20120;-56
2021/12/04 06:26:59;;;;;;;20.35;9.70;;;;;;;;;;5050279;28;20021;-56
2021/12/04 06:29:25;;;;;;;24.30;10.85;;;;;;;;;;5052506;28;20496;-56
2021/12/04 06:31:52;;;;;;;16.27;8.35;;;;;;;;;;5050127;28;20029;-55
2021/12/04 06:34:18;;;;;;;16.27;9.27;;;;;;;;;;5049049;28;20068;-56
2021/12/04 06:36:43;;;;;;;19.15;9.40;;;;;;;;;;5047078;28;20087;-54
2021/12/04 06:39:09;;;;;;;20.05;8.88;;;;;;;;;;5050028;28;20076;-55
2021/12/04 06:41:36;;;;;;;17.00;8.68;;;;;;;;;;5052498;28;20029;-55
2021/12/04 06:44:02;;;;;;;15.60;8.45;;;;;;;;;;5046687;28;20016;-57
2021/12/04 06:46:29;;;;;;;16.20;7.35;;;;;;;;;;5047474;28;20032;-53
2021/12/04 06:51:45;;;;;;;16.98;8.32;;;;;;;;;;5043885;28;20523;-56
2021/12/04 06:54:20;;;;;;;15.10;7.55;;;;;;;;;;5049624;28;20060;-56
2021/12/04 06:56:46;;;;;;;12.65;7.28;;;;;;;;;;5044726;28;20057;-55
2021/12/04 06:59:16;;;;;;;13.00;7.38;;;;;;;;;;5047017;28;20441;-56
2021/12/04 07:01:42;;;;;;;13.27;7.28;;;;;;;;;;5047813;28;20068;-55
2021/12/04 07:04:09;;;;;;;11.68;6.07;;;;;;;;;;5040724;28;20025;-55
2021/12/04 07:06:35;;;;;;;13.18;7.60;;;;;;;;;;5045782;28;20460;-56
2021/12/04 07:09:01;;;;;;;12.07;6.32;;;;;;;;;;5051612;28;20064;-56
2021/12/04 07:11:27;;;;;;;14.13;7.28;;;;;;;;;;5044722;28;20056;-52
2021/12/04 07:13:54;;;;;;;15.48;7.20;;;;;;;;;;5049638;28;20033;-57
2021/12/04 07:16:20;;;;;;;10.95;6.30;;;;;;;;;;5044280;28;20025;-56
2021/12/04 07:18:47;;;;;;;12.52;6.63;;;;;;;;;;5051985;28;20481;-56
2021/12/04 07:21:13;;;;;;;11.10;6.15;;;;;;;;;;5050243;28;20055;-57
2021/12/04 07:23:39;;;;;;;14.23;5.88;;;;;;;;;;5052347;28;20036;-56
2021/12/04 07:26:06;;;;;;;12.20;6.00;;;;;;;;;;5049741;28;20121;-56
2021/12/04 07:28:32;;;;;;;11.07;6.00;;;;;;;;;;5044707;28;20103;-56
2021/12/04 07:30:58;;;;;;;11.80;6.15;;;;;;;;;;5050736;28;20167;-55
2021/12/04 07:33:24;;;;;;;9.45;5.80;;;;;;;;;;5043482;28;20183;-53
2021/12/04 07:35:51;;;;;;;7.80;5.57;;;;;;;;;;5047806;28;20048;-57
2021/12/04 07:38:17;;;;;;;10.10;5.72;;;;;;;;;;5043969;28;20035;-55
2021/12/04 07:40:44;;;;;;;10.50;5.45;;;;;;;;;;5048418;28;20059;-55
2021/12/04 07:43:11;;;;;;;10.85;5.75;;;;;;;;;;5040000;28;20370;-54
2021/12/04 07:45:37;;;;;;;9.65;6.00;;;;;;;;;;5041841;28;20029;-57
2021/12/04 07:48:03;;;;;;;14.57;6.22;;;;;;;;;;5038627;28;20347;-56
2021/12/04 07:50:29;;;;;;;10.07;5.75;;;;;;;;;;5049136;28;20029;-54
2021/12/04 07:52:56;;;;;;;10.80;4.78;;;;;;;;;;5044961;28;20036;-56
2021/12/04 07:55:22;;;;;;;10.77;5.90;;;;;;;;;;5053972;28;20029;-55
2021/12/04 07:57:48;;;;;;;13.68;5.93;;;;;;;;;;5048786;28;20116;-56
2021/12/04 08:00:16;;;;;;;9.52;5.40;;;;;;;;;;5045037;28;20036;-55
2021/12/04 08:02:42;;;;;;;7.53;4.78;;;;;;;;;;5045035;28;20087;-56
2021/12/04 08:05:08;;;;;;;11.68;5.85;;;;;;;;;;5044198;28;20035;-57
2021/12/04 08:07:34;;;;;;;9.27;4.88;;;;;;;;;;5050064;28;20032;-55
2021/12/04 08:10:00;;;;;;;8.43;5.32;;;;;;;;;;5051989;28;20070;-57
2021/12/04 08:12:26;;;;;;;9.73;5.38;;;;;;;;;;5050813;28;20104;-55
2021/12/04 08:14:53;;;;;;;8.77;5.18;;;;;;;;;;5051541;28;20124;-57
2021/12/04 08:17:19;;;;;;;10.23;5.13;;;;;;;;;;5043632;28;20029;-57
2021/12/04 08:19:45;;;;;;;10.00;5.32;;;;;;;;;;5043760;28;20029;-56
2021/12/04 08:22:11;;;;;;;8.93;5.07;;;;;;;;;;5048237;28;20113;-57
2021/12/04 08:24:38;;;;;;;8.82;4.68;;;;;;;;;;5040492;28;20033;-53
2021/12/04 08:27:04;;;;;;;10.18;4.82;;;;;;;;;;5042061;28;20029;-54
2021/12/04 08:29:31;;;;;;;9.55;5.03;;;;;;;;;;5042503;28;20017;-54
2021/12/04 08:31:57;;;;;;;9.25;5.35;;;;;;;;;;5048173;28;20070;-56
2021/12/04 08:34:24;;;;;;;9.77;4.97;;;;;;;;;;5049831;28;20029;-57
2021/12/04 08:36:52;;;;;;;12.63;6.28;;;;;;;;;;5040583;28;20401;-56
2021/12/04 08:39:17;;;;;;;7.57;4.63;;;;;;;;;;5039499;28;20515;-56
2021/12/04 08:41:43;;;;;;;10.73;5.28;;;;;;;;;;5047776;28;20021;-55
2021/12/04 08:44:09;;;;;;;9.90;5.15;;;;;;;;;;5047168;28;20036;-57
2021/12/04 08:46:38;;;;;;;8.60;5.10;;;;;;;;;;5047974;28;20017;-54
2021/12/04 08:49:04;;;;;;;14.73;5.93;;;;;;;;;;5051190;28;20033;-57
2021/12/04 08:51:30;;;;;;;9.90;5.43;;;;;;;;;;5045809;28;20489;-56
2021/12/04 08:53:56;;;;;;;12.50;5.88;;;;;;;;;;5046274;28;20073;-56
2021/12/04 08:56:22;;;;;;;9.88;5.32;;;;;;;;;;5051413;28;20029;-55
2021/12/04 08:58:48;;;;;;;9.00;4.63;;;;;;;;;;5055312;28;20041;-56
2021/12/04 09:01:22;;;;;;;8.95;4.90;;;;;;;;;;5046937;28;20116;-55
2021/12/04 09:03:48;;;;;;;11.70;5.45;;;;;;;;;;5046257;28;20029;-56
2021/12/04 09:06:15;;;;;;;9.38;4.78;;;;;;;;;;5040190;28;20032;-56
2021/12/04 09:08:41;;;;;;;11.45;5.70;;;;;;;;;;5055197;28;20055;-56
2021/12/04 09:11:09;;;;;;;8.15;4.90;;;;;;;;;;5050175;28;20100;-56
2021/12/04 09:13:36;;;;;;;10.77;5.40;;;;;;;;;;5052989;28;20060;-56
2021/12/04 09:16:03;;;;;;;11.13;5.68;;;;;;;;;;5053882;28;20472;-56
2021/12/04 09:18:29;;;;;;;9.82;5.25;;;;;;;;;;5053507;28;20028;-56
2021/12/04 09:20:56;;;;;;;9.93;5.28;;;;;;;;;;5052489;28;20018;-56
2021/12/04 09:23:24;;;;;;;11.98;6.45;;;;;;;;;;5052386;28;20034;-55
2021/12/04 09:25:56;;;;;;;10.82;6.25;;;;;;;;;;5051171;28;20030;-56
2021/12/04 09:28:26;;;;;;;11.60;6.23;;;;;;;;;;5051898;28;20039;-57
2021/12/04 09:31:16;;;;;;;10.98;6.07;;;;;;;;;;5044345;28;20083;-56
2021/12/04 09:36:32;;;;;;;13.15;6.95;;;;;;;;;;5055059;28;20048;-55
2021/12/04 10:01:41;;;;;;;15.25;8.23;;;;;;;;;;5049258;28;20052;-56
2021/12/04 10:11:20;;;;;;;13.27;7.88;;;;;;;;;;5053002;28;20358;-51
2021/12/04 10:13:09;;;;;;;15.07;7.95;;;;;;;;;;5053536;28;20090;-56
2021/12/04 10:16:09;;;;;;;18.27;7.85;;;;;;;;;;5048134;28;20032;-56
2021/12/04 10:18:57;;;;;;;17.10;9.05;;;;;;;;;;5048201;28;20401;-54
2021/12/04 10:24:27;;;;;;;12.53;5.13;;;;;;;;;;5048049;28;20111;-56
2021/12/04 10:35:10;;;;;;;15.95;7.63;;;;;;;;;;5038229;28;20039;-54
2021/12/04 10:37:45;;;;;;;19.27;8.63;;;;;;;;;;5047876;28;20045;-54
2021/12/04 10:40:11;;;;;;;15.68;7.82;;;;;;;;;;5052873;28;20028;-55
2021/12/04 10:42:48;;;;;;;13.02;7.47;;;;;;;;;;5053723;28;20115;-55
2021/12/04 10:45:14;;;;;;;16.85;8.52;;;;;;;;;;5049028;28;20521;-56
2021/12/04 10:47:50;;;;;;;19.38;9.38;;;;;;;;;;5052510;28;20082;-56
2021/12/04 10:50:30;;;;;;;14.23;7.22;;;;;;;;;;5052475;28;20468;-56
2021/12/04 11:06:37;;;;;;;16.85;11.43;;;;;;;;;;5049815;28;20396;-55
2021/12/04 11:23:37;;;;;;;12.15;6.30;;;;;;;;;;5047776;28;20370;-56
2021/12/04 11:37:20;;;;;;;12.77;6.13;;;;;;;;;;5051785;28;20052;-56
2021/12/04 11:40:01;;;;;;;11.43;6.47;;;;;;;;;;5044505;28;20087;-52
2021/12/04 11:42:35;;;;;;;13.80;6.78;;;;;;;;;;5045408;28;20061;-55
2021/12/04 11:45:11;;;;;;;11.85;6.75;;;;;;;;;;5050983;28;20020;-55
2021/12/04 11:47:41;;;;;;;13.32;6.53;;;;;;;;;;5050284;28;20033;-52
2021/12/04 11:50:18;;;;;;;10.82;6.20;;;;;;;;;;5053171;28;20071;-56
2021/12/04 11:52:46;;;;;;;10.25;6.07;;;;;;;;;;5046016;28;20024;-56
2021/12/04 11:55:12;;;;;;;11.27;6.32;;;;;;;;;;5045980;28;20334;-54
2021/12/04 11:57:38;;;;;;;10.85;5.85;;;;;;;;;;5048856;28;20025;-55
2021/12/04 12:00:11;;;;;;;11.10;6.47;;;;;;;;;;5050059;28;20476;-56
2021/12/04 12:02:37;;;;;;;11.93;5.80;;;;;;;;;;5049364;28;20033;-54
2021/12/04 12:05:05;;;;;;;12.80;6.38;;;;;;;;;;5054492;28;20033;-55
2021/12/04 12:07:31;;;;;;;14.73;7.75;;;;;;;;;;5053511;28;20612;-56
2021/12/04 12:10:07;;;;;;;11.73;6.30;;;;;;;;;;5046957;28;20026;-56
2021/12/04 12:12:35;;;;;;;9.85;5.90;;;;;;;;;;5050625;28;20075;-55
2021/12/04 12:15:07;;;;;;;11.88;7.22;;;;;;;;;;5047375;28;20421;-56
2021/12/04 12:17:37;;;;;;;14.45;7.57;;;;;;;;;;5040212;28;20032;-56
2021/12/04 12:20:05;;;;;;;12.93;7.25;;;;;;;;;;5046160;28;20040;-53
2021/12/04 12:22:48;;;;;;;10.95;6.43;;;;;;;;;;5047838;28;20045;-55
2021/12/04 12:33:23;;;;;;;15.55;8.65;;;;;;;;;;5041126;28;20087;-56
2021/12/04 12:38:59;;;;;;;14.90;7.50;;;;;;;;;;5052534;28;20537;-56
2021/12/04 12:41:30;;;;;;;12.95;7.25;;;;;;;;;;5045902;28;20547;-55
2021/12/04 12:44:05;;;;;;;14.60;7.82;;;;;;;;;;5050848;28;20047;-54
2021/12/04 12:46:50;;;;;;;16.77;7.65;;;;;;;;;;5050942;28;20025;-52
2021/12/04 12:49:23;;;;;;;14.15;7.13;;;;;;;;;;5046953;28;20116;-57
2021/12/04 12:51:54;;;;;;;12.07;7.22;;;;;;;;;;5041782;28;20029;-56
2021/12/04 12:54:25;;;;;;;13.25;7.85;;;;;;;;;;5050146;28;20071;-56
2021/12/04 12:56:58;;;;;;;11.18;6.80;;;;;;;;;;5049381;28;20017;-56
2021/12/04 12:59:36;;;;;;;14.05;6.95;;;;;;;;;;5049919;28;20025;-56
2021/12/04 13:13:43;;;;;;;10.85;6.00;;;;;;;;;;5048557;28;20039;-55
2021/12/04 13:16:17;;;;;;;12.65;7.20;;;;;;;;;;5045612;28;20109;-55
2021/12/04 13:18:46;;;;;;;11.27;6.47;;;;;;;;;;5049392;28;20044;-55
2021/12/04 13:21:12;;;;;;;11.77;6.80;;;;;;;;;;5048637;28;20027;-54
2021/12/04 13:23:39;;;;;;;13.88;6.95;;;;;;;;;;5045038;28;20017;-54
2021/12/04 13:26:13;;;;;;;14.88;8.02;;;;;;;;;;5036129;28;20117;-53
2021/12/04 13:28:42;;;;;;;12.50;7.03;;;;;;;;;;5048062;28;20060;-56
2021/12/04 13:31:09;;;;;;;13.65;7.65;;;;;;;;;;5045231;28;20024;-56
2021/12/04 13:33:37;;;;;;;13.38;7.43;;;;;;;;;;5049382;28;20072;-56
2021/12/04 13:36:03;;;;;;;13.98;7.35;;;;;;;;;;5050490;28;20048;-57
2021/12/04 13:38:29;;;;;;;10.95;6.90;;;;;;;;;;5050385;28;20029;-57
2021/12/04 13:40:56;;;;;;;13.48;7.20;;;;;;;;;;5049472;28;20791;-56
2021/12/04 13:43:23;;;;;;;13.35;7.47;;;;;;;;;;5045934;28;20029;-57
2021/12/04 13:45:59;;;;;;;15.23;7.78;;;;;;;;;;5053574;28;20581;-56
2021/12/04 13:48:26;;;;;;;12.98;6.90;;;;;;;;;;5054177;28;20432;-57
2021/12/04 13:50:52;;;;;;;11.60;7.38;;;;;;;;;;5054284;28;20032;-53
2021/12/04 13:53:20;;;;;;;11.75;7.10;;;;;;;;;;5053664;28;20032;-55
2021/12/04 13:55:49;;;;;;;14.48;7.28;;;;;;;;;;5054534;28;20029;-54
2021/12/04 13:58:15;;;;;;;12.68;7.18;;;;;;;;;;5054307;28;20029;-56
2021/12/04 14:00:44;;;;;;;12.32;6.85;;;;;;;;;;5048157;28;20029;-56
2021/12/04 14:03:10;;;;;;;14.80;7.72;;;;;;;;;;5052990;28;20632;-54
2021/12/04 14:05:36;;;;;;;14.07;7.30;;;;;;;;;;5053797;28;20106;-57
2021/12/04 14:08:04;;;;;;;12.23;6.88;;;;;;;;;;5054119;28;20033;-56
2021/12/04 14:10:32;;;;;;;12.00;6.53;;;;;;;;;;5053312;28;20082;-55
2021/12/04 14:12:59;;;;;;;11.13;6.32;;;;;;;;;;5055693;28;20103;-56
2021/12/04 14:15:26;;;;;;;12.13;6.18;;;;;;;;;;5057206;28;20045;-56
2021/12/04 14:17:58;;;;;;;10.25;6.13;;;;;;;;;;5052094;28;20031;-56
2021/12/04 14:20:25;;;;;;;11.73;6.68;;;;;;;;;;5053943;28;20524;-57
2021/12/04 14:22:52;;;;;;;10.75;5.93;;;;;;;;;;5049336;28;20103;-57
2021/12/04 14:25:19;;;;;;;10.05;6.07;;;;;;;;;;5053289;28;20029;-55
2021/12/04 14:27:45;;;;;;;12.80;6.22;;;;;;;;;;5053785;28;20068;-54
2021/12/04 14:30:15;;;;;;;14.73;6.78;;;;;;;;;;5053157;28;20043;-55
2021/12/04 14:32:43;;;;;;;14.80;6.47;;;;;;;;;;5055116;28;20033;-56
2021/12/04 14:35:16;;;;;;;9.90;6.18;;;;;;;;;;5050916;28;20334;-56
2021/12/04 14:37:50;;;;;;;11.68;6.75;;;;;;;;;;5056536;28;20056;-55
2021/12/04 14:40:18;;;;;;;10.85;5.03;;;;;;;;;;5043719;28;20095;-52
2021/12/04 14:42:44;;;;;;;9.30;6.00;;;;;;;;;;5046170;28;20339;-56
2021/12/04 14:45:12;;;;;;;11.55;5.95;;;;;;;;;;5044891;28;20036;-56
2021/12/04 14:47:43;;;;;;;12.02;6.70;;;;;;;;;;5056271;28;20081;-56
2021/12/04 14:50:10;;;;;;;10.60;6.85;;;;;;;;;;5057228;28;20096;-54
2021/12/04 14:52:37;;;;;;;13.95;7.38;;;;;;;;;;5048914;28;20484;-56
2021/12/04 14:55:21;;;;;;;13.90;7.18;;;;;;;;;;5056601;28;20075;-57
2021/12/04 14:57:47;;;;;;;10.48;6.28;;;;;;;;;;5056899;28;20422;-55
2021/12/04 15:00:18;;;;;;;13.20;7.38;;;;;;;;;;5059760;28;20453;-56
2021/12/04 15:03:14;;;;;;;13.50;7.75;;;;;;;;;;5060857;28;20060;-55
2021/12/04 15:05:41;;;;;;;15.35;7.45;;;;;;;;;;5041740;28;20255;-55
2021/12/04 15:08:11;;;;;;;15.63;8.52;;;;;;;;;;5059450;28;20358;-55
2021/12/04 15:10:38;;;;;;;18.05;9.27;;;;;;;;;;5052727;28;20107;-52
2021/12/04 15:13:05;;;;;;;17.38;8.45;;;;;;;;;;5061880;28;20036;-55
2021/12/04 15:15:34;;;;;;;17.55;8.18;;;;;;;;;;5057738;28;20021;-56
2021/12/04 15:18:02;;;;;;;14.98;7.90;;;;;;;;;;5061539;28;20029;-56
2021/12/04 15:20:33;;;;;;;16.15;8.35;;;;;;;;;;5064298;28;20078;-56
2021/12/04 15:23:03;;;;;;;15.88;9.07;;;;;;;;;;5058169;28;20465;-54
2021/12/04 15:25:32;;;;;;;19.63;8.98;;;;;;;;;;5038797;28;20029;-57
2021/12/04 15:27:58;;;;;;;18.23;9.27;;;;;;;;;;5049476;28;20037;-56
2021/12/04 15:30:25;;;;;;;20.73;9.63;;;;;;;;;;5046223;28;20437;-55
2021/12/04 15:32:52;;;;;;;19.00;10.10;;;;;;;;;;5055311;28;20033;-56
2021/12/04 15:35:34;;;;;;;20.73;9.55;;;;;;;;;;5054791;28;20110;-56
2021/12/04 15:38:07;;;;;;;18.80;9.93;;;;;;;;;;5051664;28;20127;-56
2021/12/04 15:40:49;;;;;;;21.05;9.63;;;;;;;;;;5054181;28;20724;-56
2021/12/04 15:43:25;;;;;;;22.40;10.88;;;;;;;;;;5050137;28;20382;-51
2021/12/04 15:46:08;;;;;;;21.08;10.40;;;;;;;;;;5055884;28;20393;-55
2021/12/04 15:53:58;;;;;;;22.05;11.57;;;;;;;;;;5056597;28;20047;-56
2021/12/04 15:56:31;;;;;;;19.30;9.93;;;;;;;;;;5057664;28;20036;-54
2021/12/04 15:58:58;;;;;;;31.38;15.68;;;;;;;;;;5053874;28;20132;-54
2021/12/04 16:01:29;;;;;;;67.03;28.92;;;;;;;;;;5048114;28;20072;-57
2021/12/04 16:03:56;;;;;;;32.00;15.93;;;;;;;;;;5046790;28;20022;-56
2021/12/04 16:06:22;;;;;;;42.03;24.55;;;;;;;;;;5047003;28;20025;-56
2021/12/04 16:08:48;;;;;;;30.00;16.25;;;;;;;;;;5055623;28;20086;-54
2021/12/04 16:11:16;;;;;;;23.90;12.73;;;;;;;;;;5048256;28;20024;-53
2021/12/04 16:13:47;;;;;;;47.35;23.13;;;;;;;;;;5048825;28;20037;-52
2021/12/04 16:16:19;;;;;;;20.50;11.68;;;;;;;;;;5049230;28;20409;-52
2021/12/04 16:18:45;;;;;;;21.20;11.13;;;;;;;;;;5049570;28;20025;-54
2021/12/04 16:21:12;;;;;;;19.38;10.43;;;;;;;;;;5050813;28;20032;-56
2021/12/04 16:23:38;;;;;;;22.60;11.80;;;;;;;;;;5044846;28;20036;-56
2021/12/04 16:26:05;;;;;;;20.60;10.57;;;;;;;;;;5051511;28;20726;-56
2021/12/04 16:28:56;;;;;;;23.80;12.25;;;;;;;;;;5053978;28;20029;-56
2021/12/04 16:39:03;;;;;;;19.70;10.10;;;;;;;;;;5049271;28;20040;-57
2021/12/04 16:41:30;;;;;;;18.73;10.73;;;;;;;;;;5049883;28;20457;-56
2021/12/04 16:43:56;;;;;;;21.35;10.10;;;;;;;;;;5050374;28;20052;-57
2021/12/04 16:46:25;;;;;;;17.02;9.30;;;;;;;;;;5054691;28;20017;-56
2021/12/04 16:48:53;;;;;;;14.68;8.75;;;;;;;;;;5055311;28;20025;-56
2021/12/04 16:57:02;;;;;;;13.85;7.85;;;;;;;;;;5048840;28;20040;-55
2021/12/04 16:59:25;;;;;;;19.77;10.70;;;;;;;;;;5049201;28;20037;-56
2021/12/04 17:01:54;;;;;;;14.20;7.45;;;;;;;;;;5047468;28;20473;-54
2021/12/04 17:04:20;;;;;;;15.48;8.38;;;;;;;;;;5051770;28;20043;-54
2021/12/04 17:06:47;;;;;;;19.48;9.52;;;;;;;;;;5047596;28;20025;-57
2021/12/04 17:09:13;;;;;;;17.05;8.68;;;;;;;;;;5048999;28;20414;-57
2021/12/04 17:11:41;;;;;;;13.80;7.88;;;;;;;;;;5048691;28;20044;-53
2021/12/04 17:14:07;;;;;;;14.50;8.60;;;;;;;;;;5039272;28;20029;-56
2021/12/04 17:16:33;;;;;;;15.25;8.52;;;;;;;;;;5043486;28;20033;-56
2021/12/04 17:19:10;;;;;;;13.93;8.10;;;;;;;;;;5050757;28;20044;-56
2021/12/04 17:21:38;;;;;;;14.02;8.00;;;;;;;;;;5053145;28;20116;-56
2021/12/04 17:24:05;;;;;;;16.05;9.50;;;;;;;;;;5051480;28;20392;-56
2021/12/04 17:26:31;;;;;;;14.57;8.57;;;;;;;;;;5044150;28;20112;-55
2021/12/04 17:28:57;;;;;;;12.18;6.88;;;;;;;;;;5049828;28;20488;-56
2021/12/04 17:31:24;;;;;;;19.63;10.20;;;;;;;;;;5049917;28;20349;-56
2021/12/04 17:33:51;;;;;;;16.95;10.93;;;;;;;;;;5049196;28;20423;-54
2021/12/04 17:36:17;;;;;;;19.77;10.48;;;;;;;;;;5055116;28;20058;-54
2021/12/04 17:38:45;;;;;;;14.77;8.38;;;;;;;;;;5055953;28;20032;-56
2021/12/04 17:41:12;;;;;;;14.63;7.45;;;;;;;;;;5056520;28;20025;-56
2021/12/04 17:43:38;;;;;;;10.48;7.18;;;;;;;;;;5057522;28;20025;-55